Derry, United Kingdom
Current Conditions -  °F | °C
As of 7:00 PM on Thursday 30 Oct 2014 (Local Time) from EIDL Reporting Station
Broken Clouds Broken Clouds  
Wind Chill: 61°   Ceiling: 4200
Heat Index: 61°   Visibility: 6mi
Dew Point: 55°   Wind: 16mph
Humidity: 82%   Direction: 180°S
Pressure: 29.71"   Gusts: NA
Location:  55°N, 7.31°W
Report Text: EIDL 301900Z 18014KT 9999 FEW035 BKN042 16/13 Q1006
Loading
Personal Weather Stations






























Interactive Weather Map New forecast layout! Learn more

10-Day Weather Forecast

Advertisements
Track Severe Weather on mobile